Time;durP1;ratioP1;P1;durP2;ratioP2;P2;SDS_P1;SDS_P2;PMS_P1;PMS_P2;Temp;Humidity;BMP_temperature;BMP_pressure;BME280_temperature;BME280_humidity;BME280_pressure;Samples;Min_cycle;Max_cycle;Signal;HPM_P1;HPM_P2
2021/07/08 00:01:43;;;;;;;0.40;0.20;;;17.10;99.90;;;;;;5110661;28;20385;-79
2021/07/08 00:04:09;;;;;;;0.40;0.20;;;17.20;99.90;;;;;;5108333;28;20385;-79
2021/07/08 00:06:35;;;;;;;0.40;0.20;;;17.10;99.90;;;;;;5092818;28;20386;-79
2021/07/08 00:09:01;;;;;;;0.40;0.20;;;17.00;99.90;;;;;;5109332;28;20391;-79
2021/07/08 00:11:27;;;;;;;0.40;0.30;;;17.00;99.90;;;;;;5107483;28;20408;-79
2021/07/08 00:13:53;;;;;;;0.40;0.30;;;17.10;99.90;;;;;;5093365;28;20679;-79
2021/07/08 00:16:20;;;;;;;0.40;0.20;;;17.10;99.90;;;;;;5110563;28;20497;-80
2021/07/08 00:18:45;;;;;;;0.40;0.30;;;17.10;99.90;;;;;;5106437;28;20400;-80
2021/07/08 00:21:11;;;;;;;0.40;0.30;;;17.10;99.90;;;;;;5093081;28;20378;-79
2021/07/08 00:23:37;;;;;;;0.40;0.20;;;17.20;99.90;;;;;;5106726;28;20388;-80
2021/07/08 00:26:03;;;;;;;0.40;0.30;;;17.10;99.90;;;;;;5111247;28;20379;-79
2021/07/08 00:28:29;;;;;;;0.40;0.20;;;17.30;99.90;;;;;;5092494;28;20402;-80
2021/07/08 00:30:54;;;;;;;0.40;0.27;;;17.20;99.90;;;;;;5103711;28;20454;-79
2021/07/08 00:33:21;;;;;;;0.40;0.20;;;17.20;99.90;;;;;;5109947;28;20463;-80
2021/07/08 00:35:47;;;;;;;0.40;0.30;;;17.30;99.90;;;;;;5092374;28;20413;-79
2021/07/08 00:38:13;;;;;;;0.40;0.20;;;17.30;99.90;;;;;;5107317;28;20412;-79
2021/07/08 00:40:40;;;;;;;0.40;0.20;;;17.20;99.90;;;;;;5109621;28;20427;-79
2021/07/08 00:43:06;;;;;;;0.40;0.20;;;17.20;99.90;;;;;;5092878;28;20466;-79
2021/07/08 00:45:32;;;;;;;0.40;0.20;;;17.20;99.90;;;;;;5102083;28;20473;-80
2021/07/08 00:47:58;;;;;;;0.40;0.20;;;17.30;99.90;;;;;;5113107;28;20380;-79
2021/07/08 00:50:29;;;;;;;0.40;0.30;;;17.30;99.90;;;;;;5092328;28;20378;-79
2021/07/08 00:52:55;;;;;;;0.40;0.30;;;17.20;99.90;;;;;;5107948;28;20392;-79
2021/07/08 00:55:21;;;;;;;0.40;0.20;;;17.30;99.90;;;;;;5091919;28;20918;-79
2021/07/08 00:57:52;;;;;;;0.40;0.20;;;17.20;99.90;;;;;;5092582;28;20406;-79
2021/07/08 01:00:31;;;;;;;0.40;0.20;;;17.30;99.90;;;;;;5092102;28;20436;-81
2021/07/08 01:02:57;;;;;;;0.40;0.20;;;17.30;99.90;;;;;;5092396;28;20405;-80
2021/07/08 01:05:32;;;;;;;0.40;0.20;;;17.40;99.90;;;;;;5112127;28;20372;-79
2021/07/08 01:07:58;;;;;;;0.40;0.30;;;17.30;99.90;;;;;;5081869;28;20412;-79
2021/07/08 01:10:25;;;;;;;0.40;0.20;;;17.40;99.90;;;;;;5091648;28;20370;-79
2021/07/08 01:12:51;;;;;;;0.40;0.30;;;17.30;99.90;;;;;;5092136;28;20714;-79
2021/07/08 01:15:17;;;;;;;0.40;0.20;;;17.40;99.90;;;;;;5092021;28;20402;-79
2021/07/08 01:17:44;;;;;;;0.40;0.30;;;17.30;99.90;;;;;;5098272;28;20466;-79
2021/07/08 01:20:11;;;;;;;0.40;0.30;;;17.50;99.90;;;;;;5112589;28;20369;-79
2021/07/08 01:22:37;;;;;;;0.40;0.20;;;17.40;99.90;;;;;;5096674;28;20409;-80
2021/07/08 01:25:08;;;;;;;0.40;0.20;;;17.40;99.90;;;;;;5080803;28;20400;-79
2021/07/08 01:27:36;;;;;;;0.40;0.20;;;17.30;99.90;;;;;;5111197;28;20899;-79
2021/07/08 01:30:03;;;;;;;0.40;0.20;;;17.30;99.90;;;;;;5090260;28;20438;-79
2021/07/08 01:32:29;;;;;;;0.40;0.20;;;17.30;99.90;;;;;;5098681;28;20384;-80
2021/07/08 01:34:54;;;;;;;0.40;0.20;;;17.20;99.90;;;;;;5112117;28;20756;-80
2021/07/08 01:37:20;;;;;;;0.40;0.22;;;17.20;99.90;;;;;;5092102;28;20436;-81
2021/07/08 01:39:46;;;;;;;0.40;0.20;;;17.10;99.90;;;;;;5104968;28;20525;-79
2021/07/08 01:42:13;;;;;;;0.40;0.30;;;17.10;99.90;;;;;;5111368;28;20381;-78
2021/07/08 01:44:39;;;;;;;0.40;0.20;;;16.90;99.90;;;;;;5111178;28;20398;-79
2021/07/08 01:47:05;;;;;;;0.40;0.40;;;17.00;99.90;;;;;;5100286;28;20911;-79
2021/07/08 01:49:31;;;;;;;0.40;0.20;;;17.00;99.90;;;;;;5078409;28;20397;-79
2021/07/08 01:51:57;;;;;;;0.40;0.20;;;17.00;99.90;;;;;;5099615;28;20384;-79
2021/07/08 01:54:22;;;;;;;0.40;0.20;;;16.80;99.90;;;;;;5110446;28;20388;-79
2021/07/08 01:56:48;;;;;;;0.40;0.30;;;16.80;99.90;;;;;;5103118;28;20405;-79
2021/07/08 01:59:14;;;;;;;0.40;0.20;;;16.80;99.90;;;;;;5092955;28;20465;-78
2021/07/08 02:01:40;;;;;;;0.40;0.20;;;16.80;99.90;;;;;;5111389;28;20389;-78
2021/07/08 02:04:06;;;;;;;0.40;0.30;;;16.70;99.90;;;;;;5100701;28;20408;-78
2021/07/08 02:06:32;;;;;;;0.40;0.28;;;16.80;99.90;;;;;;5091095;28;20797;-79
2021/07/08 02:08:57;;;;;;;0.40;0.30;;;16.80;99.90;;;;;;5091503;28;20382;-79
2021/07/08 02:11:23;;;;;;;0.40;0.30;;;16.70;99.90;;;;;;5082645;28;20392;-79
2021/07/08 02:13:49;;;;;;;0.40;0.20;;;16.70;99.90;;;;;;5092553;28;20394;-79
2021/07/08 02:16:15;;;;;;;0.40;0.20;;;16.80;99.90;;;;;;5091143;28;20478;-79
2021/07/08 02:18:42;;;;;;;0.40;0.27;;;16.80;99.90;;;;;;5080688;28;20401;-78
2021/07/08 02:21:09;;;;;;;0.40;0.20;;;16.70;99.90;;;;;;5108964;28;20407;-79
2021/07/08 02:23:36;;;;;;;0.40;0.20;;;16.70;99.90;;;;;;5090308;28;20379;-78
2021/07/08 02:26:03;;;;;;;0.40;0.20;;;16.70;99.90;;;;;;5106954;28;20438;-78
2021/07/08 02:28:28;;;;;;;0.40;0.20;;;16.80;99.90;;;;;;5103109;28;20475;-78
2021/07/08 02:30:54;;;;;;;0.40;0.20;;;16.90;99.90;;;;;;5091324;28;20473;-78
2021/07/08 02:33:20;;;;;;;0.40;0.30;;;16.80;99.90;;;;;;5090895;28;20397;-78
2021/07/08 02:35:45;;;;;;;0.40;0.20;;;16.80;99.90;;;;;;5099389;28;20415;-78
2021/07/08 02:38:11;;;;;;;0.40;0.20;;;16.90;99.90;;;;;;5111414;28;20380;-78
2021/07/08 02:40:38;;;;;;;0.40;0.30;;;16.90;99.90;;;;;;5110743;28;20376;-77
2021/07/08 02:43:05;;;;;;;0.40;0.20;;;16.90;99.90;;;;;;5111223;28;20418;-78
2021/07/08 02:45:34;;;;;;;0.40;0.30;;;16.90;99.90;;;;;;5105812;28;20410;-78
2021/07/08 02:48:02;;;;;;;0.40;0.30;;;16.90;99.90;;;;;;5094829;28;20926;-79
2021/07/08 02:50:30;;;;;;;0.40;0.30;;;16.90;99.90;;;;;;5093866;28;20922;-80
2021/07/08 02:52:56;;;;;;;0.40;0.30;;;16.90;99.90;;;;;;5110473;28;20392;-79
2021/07/08 02:55:23;;;;;;;0.40;0.30;;;16.90;99.90;;;;;;5108877;28;20421;-79
2021/07/08 02:57:48;;;;;;;0.40;0.30;;;16.70;99.90;;;;;;5094106;28;20409;-78
2021/07/08 03:00:17;;;;;;;0.40;0.30;;;16.70;99.90;;;;;;5114255;28;20411;-79
2021/07/08 03:02:42;;;;;;;0.40;0.20;;;16.70;99.90;;;;;;5105162;28;20444;-79
2021/07/08 03:05:09;;;;;;;0.40;0.20;;;16.70;99.90;;;;;;5096087;28;20417;-79
2021/07/08 03:07:36;;;;;;;0.40;0.30;;;16.60;99.90;;;;;;5114281;28;20376;-80
2021/07/08 03:10:03;;;;;;;0.40;0.20;;;16.60;99.90;;;;;;5100269;28;20465;-79
2021/07/08 03:12:29;;;;;;;0.40;0.20;;;16.60;99.90;;;;;;5102421;28;20920;-79
2021/07/08 03:14:54;;;;;;;0.40;0.30;;;16.40;99.90;;;;;;5095991;28;20408;-79
2021/07/08 03:17:20;;;;;;;0.40;0.20;;;16.40;99.90;;;;;;5114890;28;20381;-79
2021/07/08 03:19:46;;;;;;;0.40;0.20;;;16.30;99.90;;;;;;5099855;28;20587;-79
2021/07/08 03:22:11;;;;;;;0.40;0.20;;;16.30;99.90;;;;;;5096527;28;20468;-80
2021/07/08 03:24:37;;;;;;;0.40;0.20;;;16.30;99.90;;;;;;5114082;28;20930;-79
2021/07/08 03:27:03;;;;;;;0.40;0.20;;;16.20;99.90;;;;;;5101251;28;20796;-78
2021/07/08 03:29:29;;;;;;;0.40;0.20;;;16.20;99.90;;;;;;5094786;28;20461;-79
2021/07/08 03:31:54;;;;;;;0.40;0.20;;;15.70;99.90;;;;;;5114676;28;20459;-79
2021/07/08 03:34:20;;;;;;;0.40;0.20;;;16.20;99.90;;;;;;5102479;28;20444;-79
2021/07/08 03:36:46;;;;;;;0.40;0.20;;;16.30;99.90;;;;;;5093374;28;20397;-80
2021/07/08 03:39:12;;;;;;;0.40;0.20;;;16.20;99.90;;;;;;5114019;28;20475;-79
2021/07/08 03:41:37;;;;;;;0.40;0.30;;;16.20;99.90;;;;;;5084730;28;20757;-79
2021/07/08 03:44:03;;;;;;;0.40;0.30;;;16.30;99.90;;;;;;5093743;28;20482;-79
2021/07/08 03:46:29;;;;;;;0.40;0.20;;;16.20;99.90;;;;;;5093250;28;20394;-80
2021/07/08 03:48:54;;;;;;;0.40;0.20;;;16.30;99.90;;;;;;5093621;28;20378;-80
2021/07/08 03:51:20;;;;;;;0.40;0.30;;;16.30;99.90;;;;;;5095732;28;20397;-80
2021/07/08 03:53:46;;;;;;;0.40;0.20;;;16.30;99.90;;;;;;5093045;28;20722;-80
2021/07/08 03:56:13;;;;;;;0.40;0.27;;;16.40;99.90;;;;;;5109961;28;20416;-80
2021/07/08 03:58:40;;;;;;;0.40;0.40;;;16.30;99.90;;;;;;5113416;28;20381;-79
2021/07/08 04:01:06;;;;;;;0.40;0.20;;;16.50;99.90;;;;;;5113578;28;20376;-79
2021/07/08 04:03:33;;;;;;;0.40;0.20;;;16.50;99.90;;;;;;5114080;28;20965;-80
2021/07/08 04:05:59;;;;;;;0.40;0.20;;;16.40;99.90;;;;;;5084068;28;20874;-79
2021/07/08 04:08:24;;;;;;;0.40;0.20;;;16.40;99.90;;;;;;5093572;28;20393;-80
2021/07/08 04:10:50;;;;;;;0.40;0.20;;;16.40;99.90;;;;;;5093333;28;20376;-80
2021/07/08 04:13:18;;;;;;;0.40;0.30;;;16.40;99.90;;;;;;5093781;28;20846;-80
2021/07/08 04:15:46;;;;;;;0.40;0.30;;;16.40;99.90;;;;;;5099588;28;20452;-80
2021/07/08 04:18:14;;;;;;;0.40;0.30;;;16.50;99.90;;;;;;5114003;28;20385;-79
2021/07/08 04:20:41;;;;;;;0.40;0.20;;;16.40;99.90;;;;;;5094026;28;20428;-80
2021/07/08 04:23:07;;;;;;;0.40;0.20;;;16.40;99.90;;;;;;5106000;28;20472;-80
2021/07/08 04:25:34;;;;;;;0.40;0.20;;;16.40;99.90;;;;;;5111015;28;20495;-80
2021/07/08 04:28:00;;;;;;;0.40;0.20;;;16.50;99.90;;;;;;5075177;28;20413;-80
2021/07/08 04:30:27;;;;;;;0.40;0.30;;;16.50;99.90;;;;;;5093251;28;20473;-79
2021/07/08 04:32:54;;;;;;;0.40;0.20;;;16.50;99.90;;;;;;5074710;28;20382;-80
2021/07/08 04:35:21;;;;;;;0.40;0.20;;;16.40;99.90;;;;;;5093317;28;20515;-80
2021/07/08 04:37:48;;;;;;;0.40;0.20;;;16.40;99.90;;;;;;5111044;28;20459;-80
2021/07/08 04:40:20;;;;;;;0.40;0.30;;;16.50;99.90;;;;;;5101566;28;20386;-79
2021/07/08 04:42:49;;;;;;;0.40;0.20;;;16.50;99.90;;;;;;5093661;28;20443;-79
2021/07/08 04:45:15;;;;;;;0.40;0.30;;;16.50;99.90;;;;;;5113155;28;20419;-80
2021/07/08 04:47:42;;;;;;;0.40;0.20;;;16.50;99.90;;;;;;5096531;28;20425;-79
2021/07/08 04:50:11;;;;;;;0.40;0.30;;;16.60;99.90;;;;;;5092960;28;20421;-79
2021/07/08 04:52:38;;;;;;;0.40;0.30;;;16.60;99.90;;;;;;5094735;28;20401;-80
2021/07/08 04:55:08;;;;;;;0.40;0.30;;;16.60;99.90;;;;;;5098116;28;20400;-78
2021/07/08 04:57:33;;;;;;;0.40;0.20;;;16.60;99.90;;;;;;5112640;28;20381;-80
2021/07/08 04:59:59;;;;;;;0.40;0.20;;;16.60;99.90;;;;;;5093956;28;20390;-79
2021/07/08 05:02:25;;;;;;;0.40;0.30;;;16.60;99.90;;;;;;5103315;28;20391;-79
2021/07/08 05:04:50;;;;;;;0.40;0.20;;;16.70;99.90;;;;;;5111728;28;20762;-80
2021/07/08 05:07:16;;;;;;;0.40;0.20;;;16.70;99.90;;;;;;5113131;28;20872;-80
2021/07/08 05:09:43;;;;;;;0.40;0.20;;;16.80;99.90;;;;;;5095067;28;20507;-79
2021/07/08 05:12:09;;;;;;;0.40;0.20;;;16.80;99.90;;;;;;5102216;28;20476;-79
2021/07/08 05:14:35;;;;;;;0.40;0.20;;;16.90;99.90;;;;;;5106726;28;20386;-80
2021/07/08 05:17:01;;;;;;;0.40;0.30;;;16.90;99.90;;;;;;5092678;28;20943;-79
2021/07/08 05:19:28;;;;;;;0.40;0.20;;;16.90;99.90;;;;;;5110508;28;20400;-79
2021/07/08 05:21:55;;;;;;;0.40;0.20;;;17.20;99.90;;;;;;5104793;28;20401;-80
2021/07/08 05:24:23;;;;;;;0.40;0.20;;;17.30;99.90;;;;;;5092325;28;20749;-80
2021/07/08 05:26:50;;;;;;;0.40;0.20;;;17.40;99.90;;;;;;5091126;28;20455;-80
2021/07/08 05:29:16;;;;;;;0.40;0.20;;;17.50;99.90;;;;;;5091388;28;20388;-80
2021/07/08 05:31:42;;;;;;;0.40;0.30;;;17.50;99.90;;;;;;5091365;28;20420;-79
2021/07/08 05:34:08;;;;;;;0.40;0.20;;;17.50;99.90;;;;;;5091402;28;20394;-79
2021/07/08 05:36:34;;;;;;;0.50;0.50;;;17.60;99.90;;;;;;5087619;28;20543;-81
2021/07/08 05:39:00;;;;;;;0.40;0.20;;;17.50;99.90;;;;;;5111470;28;20456;-79
2021/07/08 05:41:26;;;;;;;0.40;0.20;;;17.50;99.90;;;;;;5112074;28;20376;-79
2021/07/08 05:43:52;;;;;;;0.40;0.30;;;17.50;99.90;;;;;;5110687;28;20479;-78
2021/07/08 05:46:18;;;;;;;0.40;0.30;;;17.50;99.90;;;;;;5102854;28;20552;-79
2021/07/08 05:48:43;;;;;;;0.40;0.20;;;17.50;99.90;;;;;;5090349;28;20388;-79
2021/07/08 05:51:09;;;;;;;0.40;0.30;;;17.50;99.90;;;;;;5109361;28;20396;-79
2021/07/08 05:53:35;;;;;;;0.40;0.20;;;17.50;99.90;;;;;;5101810;28;20475;-78
2021/07/08 05:56:00;;;;;;;0.40;0.20;;;17.50;99.90;;;;;;5109424;28;20481;-79
2021/07/08 05:58:26;;;;;;;0.40;0.30;;;17.40;99.90;;;;;;5111588;28;20849;-79
2021/07/08 06:00:52;;;;;;;0.40;0.30;;;17.40;99.90;;;;;;5109878;28;20852;-79
2021/07/08 06:03:17;;;;;;;0.40;0.30;;;17.50;99.90;;;;;;5108812;28;20391;-78
2021/07/08 06:05:43;;;;;;;0.40;0.30;;;17.50;99.90;;;;;;5110653;28;20434;-79
2021/07/08 06:08:09;;;;;;;0.40;0.20;;;17.50;99.90;;;;;;5091329;28;20386;-79
2021/07/08 06:10:35;;;;;;;0.40;0.20;;;17.50;99.90;;;;;;5091819;28;20386;-78
2021/07/08 06:13:01;;;;;;;0.40;0.30;;;17.60;99.90;;;;;;5091328;28;20378;-79
2021/07/08 06:15:26;;;;;;;0.40;0.30;;;17.70;99.90;;;;;;5092878;28;20907;-79
2021/07/08 06:17:52;;;;;;;0.40;0.20;;;17.70;99.90;;;;;;5083144;28;20489;-79
2021/07/08 06:20:18;;;;;;;0.40;0.20;;;17.70;99.90;;;;;;5090509;28;20374;-79
2021/07/08 06:22:44;;;;;;;0.40;0.20;;;17.80;99.90;;;;;;5105508;28;20388;-80
2021/07/08 06:25:12;;;;;;;0.40;0.20;;;17.80;99.90;;;;;;5107833;28;20436;-78
2021/07/08 06:31:00;;;;;;;0.40;0.30;;;17.80;99.90;;;;;;5090407;28;20415;-78
2021/07/08 06:33:25;;;;;;;0.40;0.20;;;17.90;99.90;;;;;;5103558;28;20388;-79
2021/07/08 06:35:51;;;;;;;0.40;0.20;;;18.00;99.90;;;;;;5110600;28;20396;-80
2021/07/08 06:38:17;;;;;;;0.40;0.20;;;18.10;99.90;;;;;;5091231;28;20391;-79
2021/07/08 06:40:42;;;;;;;0.40;0.20;;;18.20;99.90;;;;;;5102786;28;20380;-81
2021/07/08 06:43:08;;;;;;;0.40;0.30;;;18.20;99.90;;;;;;5109791;28;20376;-81
2021/07/08 06:45:36;;;;;;;0.40;0.20;;;18.40;99.90;;;;;;5072989;28;20412;-81
2021/07/08 06:48:03;;;;;;;0.40;0.20;;;18.30;99.90;;;;;;5090940;28;20382;-81
2021/07/08 06:50:34;;;;;;;0.40;0.30;;;18.30;99.90;;;;;;5091432;28;20377;-81
2021/07/08 06:53:01;;;;;;;0.40;0.30;;;18.40;99.90;;;;;;5092113;28;20404;-80
2021/07/08 06:55:27;;;;;;;0.40;0.20;;;18.50;99.90;;;;;;5100974;28;20404;-80
2021/07/08 06:57:53;;;;;;;0.40;0.20;;;18.50;99.90;;;;;;5110587;28;20372;-79
2021/07/08 07:00:21;;;;;;;0.40;0.20;;;18.60;99.90;;;;;;5110915;28;20807;-79
2021/07/08 07:02:46;;;;;;;0.40;0.20;;;18.50;99.90;;;;;;5096633;28;20426;-82
2021/07/08 07:05:12;;;;;;;0.40;0.30;;;18.50;99.90;;;;;;5095394;28;20421;-82
2021/07/08 07:07:38;;;;;;;0.40;0.20;;;18.50;99.90;;;;;;5091295;28;20386;-84
2021/07/08 07:10:04;;;;;;;0.40;0.20;;;18.50;99.90;;;;;;5086567;28;20466;-77
2021/07/08 07:12:30;;;;;;;0.40;0.20;;;18.60;99.90;;;;;;5087727;28;20428;-81
2021/07/08 07:14:56;;;;;;;0.40;0.20;;;18.70;99.90;;;;;;5066006;28;20575;-81
2021/07/08 07:17:22;;;;;;;0.40;0.25;;;18.70;99.90;;;;;;5051428;28;20420;-79
2021/07/08 07:19:50;;;;;;;0.40;0.20;;;18.60;99.90;;;;;;5067752;28;20393;-82
2021/07/08 07:22:16;;;;;;;0.40;0.30;;;19.00;99.90;;;;;;5086107;28;20465;-80
2021/07/08 07:24:44;;;;;;;0.40;0.30;;;18.60;99.90;;;;;;5086319;28;20382;-79
2021/07/08 07:27:10;;;;;;;0.40;0.20;;;18.60;99.90;;;;;;5088570;28;20401;-82
2021/07/08 07:29:37;;;;;;;0.40;0.30;;;18.80;99.90;;;;;;5086802;28;20486;-82
2021/07/08 07:32:03;;;;;;;0.40;0.20;;;18.80;99.90;;;;;;5086669;28;21561;-81
2021/07/08 07:34:29;;;;;;;0.40;0.30;;;18.90;99.90;;;;;;5087150;28;20386;-81
2021/07/08 07:36:58;;;;;;;0.40;0.20;;;18.80;99.90;;;;;;5089213;28;20495;-82
2021/07/08 07:39:23;;;;;;;0.40;0.20;;;18.90;99.90;;;;;;5090774;28;20770;-80
2021/07/08 07:41:52;;;;;;;0.40;0.20;;;19.10;99.90;;;;;;5091623;28;20394;-78
2021/07/08 07:44:18;;;;;;;0.40;0.20;;;19.20;99.90;;;;;;5072725;28;20397;-82
2021/07/08 07:46:46;;;;;;;0.40;0.20;;;19.10;99.90;;;;;;5091355;28;20743;-84
2021/07/08 07:49:13;;;;;;;0.40;0.28;;;19.30;99.90;;;;;;5089060;28;20467;-79
2021/07/08 07:51:39;;;;;;;0.40;0.20;;;19.20;99.90;;;;;;5072870;28;20390;-78
2021/07/08 07:54:05;;;;;;;0.40;0.20;;;19.40;99.90;;;;;;5089145;28;20748;-82
2021/07/08 07:56:31;;;;;;;0.40;0.20;;;19.20;99.90;;;;;;5090618;28;20424;-81
2021/07/08 07:58:56;;;;;;;0.40;0.20;;;19.20;99.90;;;;;;5089662;28;20395;-79
2021/07/08 08:01:22;;;;;;;0.40;0.30;;;19.20;99.90;;;;;;5091735;28;20441;-79
2021/07/08 08:03:50;;;;;;;0.40;0.30;;;19.10;99.90;;;;;;5087996;28;20544;-78
2021/07/08 08:09:00;;;;;;;0.40;0.20;;;19.00;99.90;;;;;;5090471;28;20396;-77
2021/07/08 08:11:26;;;;;;;0.40;0.20;;;18.90;99.90;;;;;;5090764;28;20386;-77
2021/07/08 08:13:52;;;;;;;0.40;0.20;;;18.70;99.90;;;;;;5069149;28;20458;-78
2021/07/08 08:16:18;;;;;;;0.40;0.20;;;18.80;99.90;;;;;;5089078;28;20432;-80
2021/07/08 08:18:44;;;;;;;0.40;0.20;;;18.80;99.90;;;;;;5089067;28;20832;-79
2021/07/08 08:21:09;;;;;;;0.40;0.30;;;18.80;99.90;;;;;;5068574;28;20404;-80
2021/07/08 08:23:36;;;;;;;0.40;0.20;;;18.80;99.90;;;;;;5087355;28;21565;-80
2021/07/08 08:26:02;;;;;;;0.40;0.30;;;18.70;99.90;;;;;;5070561;28;20915;-81
2021/07/08 08:28:29;;;;;;;0.40;0.20;;;18.70;99.90;;;;;;5088783;28;20428;-82
2021/07/08 08:30:55;;;;;;;0.40;0.30;;;18.80;99.90;;;;;;5089530;28;20393;-80
2021/07/08 08:33:21;;;;;;;0.40;0.20;;;18.90;99.90;;;;;;5087688;28;20394;-82
2021/07/08 08:35:47;;;;;;;0.40;0.30;;;18.90;99.90;;;;;;5070951;28;20417;-82
2021/07/08 08:38:12;;;;;;;0.40;0.20;;;19.00;99.90;;;;;;5089022;28;20427;-82
2021/07/08 08:40:38;;;;;;;0.40;0.30;;;19.10;99.90;;;;;;5090038;28;20390;-78
2021/07/08 08:43:04;;;;;;;0.40;0.20;;;19.60;99.90;;;;;;5087283;28;20393;-81
2021/07/08 08:45:30;;;;;;;0.40;0.20;;;19.30;99.90;;;;;;5072026;28;21986;-80
2021/07/08 08:48:09;;;;;;;0.40;0.20;;;19.50;99.90;;;;;;5087225;28;20420;-81
2021/07/08 08:50:41;;;;;;;0.40;0.30;;;19.60;99.90;;;;;;5069976;28;20438;-78
2021/07/08 08:53:08;;;;;;;0.40;0.20;;;19.40;99.90;;;;;;5087477;28;20996;-83
2021/07/08 08:55:35;;;;;;;0.40;0.20;;;19.50;99.90;;;;;;5087993;28;21398;-80
2021/07/08 08:58:03;;;;;;;0.40;0.20;;;19.50;99.90;;;;;;5087276;28;20398;-81
2021/07/08 09:00:30;;;;;;;0.40;0.20;;;19.50;99.90;;;;;;5090744;28;20398;-80
2021/07/08 09:03:04;;;;;;;0.40;0.20;;;19.30;99.90;;;;;;5087233;28;20395;-81
2021/07/08 09:05:30;;;;;;;0.40;0.20;;;20.00;99.90;;;;;;5053863;27;20425;-83
2021/07/08 09:08:15;;;;;;;0.40;0.20;;;19.80;99.90;;;;;;5077369;27;20382;-80
2021/07/08 09:10:44;;;;;;;0.40;0.20;;;19.90;99.90;;;;;;5091971;28;20414;-79
2021/07/08 09:13:10;;;;;;;0.40;0.20;;;19.80;99.90;;;;;;5090891;28;20400;-77
2021/07/08 09:15:36;;;;;;;0.40;0.20;;;19.90;99.90;;;;;;5091355;28;20417;-80
2021/07/08 09:18:02;;;;;;;0.40;0.30;;;19.60;99.90;;;;;;5097301;28;20392;-78
2021/07/08 09:20:28;;;;;;;0.60;0.47;;;19.50;99.90;;;;;;5112360;28;20524;-79
2021/07/08 09:23:11;;;;;;;0.40;0.20;;;19.40;99.90;;;;;;5097216;28;20870;-80
2021/07/08 09:25:37;;;;;;;0.40;0.30;;;19.60;99.90;;;;;;5098680;28;20397;-79
2021/07/08 09:28:13;;;;;;;0.40;0.20;;;19.50;99.90;;;;;;5111292;28;20384;-78
2021/07/08 09:30:41;;;;;;;0.40;0.20;;;19.50;99.90;;;;;;5092062;28;20433;-77
2021/07/08 09:33:36;;;;;;;0.40;0.30;;;19.60;99.90;;;;;;5106384;28;20785;-77
2021/07/08 09:36:09;;;;;;;0.40;0.20;;;19.50;99.90;;;;;;5083320;28;20898;-78
2021/07/08 09:38:35;;;;;;;0.40;0.20;;;19.50;99.90;;;;;;5096492;28;20426;-77
2021/07/08 09:41:10;;;;;;;0.40;0.20;;;19.50;99.90;;;;;;5111559;28;20385;-78
2021/07/08 09:43:39;;;;;;;0.40;0.30;;;19.40;99.90;;;;;;5093358;28;20390;-80
2021/07/08 09:46:07;;;;;;;0.40;0.20;;;19.20;99.90;;;;;;5096711;28;20400;-78
2021/07/08 09:48:33;;;;;;;0.40;0.20;;;19.10;99.90;;;;;;5093768;28;20884;-79
2021/07/08 09:51:02;;;;;;;0.40;0.30;;;19.10;99.90;;;;;;5095323;28;20399;-79
2021/07/08 09:53:30;;;;;;;0.40;0.20;;;19.10;99.90;;;;;;5111270;28;20471;-77
2021/07/08 09:58:52;;;;;;;0.40;0.30;;;19.00;99.90;;;;;;5090838;28;20804;-80
2021/07/08 10:01:22;;;;;;;0.40;0.30;;;18.90;99.90;;;;;;5082600;28;20427;-77
2021/07/08 10:03:49;;;;;;;0.40;0.30;;;18.70;99.90;;;;;;5110055;28;20372;-79
2021/07/08 10:06:15;;;;;;;0.40;0.30;;;18.80;99.90;;;;;;5090538;28;20374;-78
2021/07/08 10:08:41;;;;;;;0.40;0.30;;;18.70;99.90;;;;;;5101881;28;20858;-77
2021/07/08 10:11:13;;;;;;;0.40;0.20;;;18.50;99.90;;;;;;5110287;28;20463;-81
2021/07/08 10:13:43;;;;;;;0.40;0.30;;;18.40;99.90;;;;;;5091818;28;20393;-81
2021/07/08 10:16:11;;;;;;;0.40;0.20;;;18.30;99.90;;;;;;5102493;28;20451;-78
2021/07/08 10:18:40;;;;;;;0.40;0.30;;;18.20;99.90;;;;;;5109186;28;20389;-81
2021/07/08 10:21:06;;;;;;;0.40;0.20;;;18.20;99.90;;;;;;5072883;28;20379;-81
2021/07/08 10:23:35;;;;;;;0.40;0.20;;;18.20;99.90;;;;;;5104249;28;20718;-80
2021/07/08 10:26:04;;;;;;;0.40;0.30;;;18.10;99.90;;;;;;5106362;28;20494;-80
2021/07/08 10:28:32;;;;;;;0.40;0.20;;;18.20;99.90;;;;;;5073569;28;20386;-81
2021/07/08 10:30:59;;;;;;;0.40;0.20;;;18.00;99.90;;;;;;5104129;28;20487;-82
2021/07/08 10:33:24;;;;;;;0.40;0.30;;;18.10;99.90;;;;;;5104393;28;20390;-79
2021/07/08 10:35:55;;;;;;;0.40;0.28;;;18.00;99.90;;;;;;5074550;28;20405;-79
2021/07/08 10:38:26;;;;;;;0.40;0.20;;;18.00;99.90;;;;;;5091968;28;20422;-80
2021/07/08 10:40:53;;;;;;;0.40;0.30;;;18.00;99.90;;;;;;5095012;28;20451;-79
2021/07/08 10:43:33;;;;;;;0.40;0.20;;;17.60;99.90;;;;;;5101779;28;20396;-80
2021/07/08 10:46:02;;;;;;;0.40;0.30;;;17.90;99.90;;;;;;5106755;28;20998;-80
2021/07/08 10:48:41;;;;;;;0.40;0.20;;;18.00;99.90;;;;;;5091071;28;20851;-79
2021/07/08 10:51:09;;;;;;;0.40;0.20;;;17.80;99.90;;;;;;5107317;28;20390;-81
2021/07/08 10:53:38;;;;;;;0.40;0.30;;;17.80;99.90;;;;;;5096497;28;20736;-80
2021/07/08 10:56:09;;;;;;;0.40;0.20;;;17.80;99.90;;;;;;5092716;28;20919;-80
2021/07/08 10:58:39;;;;;;;0.40;0.30;;;17.90;99.90;;;;;;5094614;28;20406;-80
2021/07/08 11:01:30;;;;;;;0.40;0.20;;;17.90;99.90;;;;;;5095319;28;20384;-82
2021/07/08 11:04:02;;;;;;;0.40;0.20;;;17.90;99.90;;;;;;5110787;28;20383;-85
2021/07/08 11:06:37;;;;;;;0.40;0.20;;;17.60;99.90;;;;;;5094650;28;20734;-79
2021/07/08 11:09:16;;;;;;;0.40;0.30;;;17.40;99.90;;;;;;5102927;28;20448;-85
2021/07/08 11:11:44;;;;;;;0.40;0.30;;;17.20;99.90;;;;;;5094630;28;20424;-85
2021/07/08 11:14:12;;;;;;;0.40;0.20;;;17.00;99.90;;;;;;5076070;28;20436;-84
2021/07/08 11:16:58;;;;;;;0.40;0.30;;;16.90;99.90;;;;;;5111575;28;20431;-83
2021/07/08 11:19:24;;;;;;;0.40;0.30;;;16.90;99.90;;;;;;5101587;28;20512;-85
2021/07/08 11:21:51;;;;;;;0.40;0.20;;;16.80;99.90;;;;;;5102664;28;20396;-85
2021/07/08 11:24:21;;;;;;;0.40;0.27;;;16.80;99.90;;;;;;5114616;28;20848;-85
2021/07/08 11:27:07;;;;;;;0.40;0.20;;;16.90;99.90;;;;;;5098306;28;20964;-86
2021/07/08 11:29:37;;;;;;;0.40;0.20;;;16.90;99.90;;;;;;5104235;28;20392;-82
2021/07/08 11:32:26;;;;;;;0.40;0.20;;;17.00;99.90;;;;;;5114338;28;20376;-81
2021/07/08 11:34:59;;;;;;;0.40;0.30;;;17.00;99.90;;;;;;5094270;28;20937;-81
2021/07/08 11:37:36;;;;;;;0.40;0.20;;;17.20;99.90;;;;;;5086937;28;20403;-81
2021/07/08 11:40:02;;;;;;;0.40;0.20;;;17.30;99.90;;;;;;5110134;28;20455;-80
2021/07/08 11:42:33;;;;;;;0.40;0.20;;;17.50;99.90;;;;;;5093766;28;20378;-79
2021/07/08 11:45:05;;;;;;;0.40;0.30;;;17.60;99.90;;;;;;5089512;28;20388;-82
2021/07/08 11:47:52;;;;;;;0.40;0.20;;;17.50;99.90;;;;;;5105010;28;20394;-78
2021/07/08 11:50:20;;;;;;;0.40;0.20;;;17.50;99.90;;;;;;5098257;28;20645;-77
2021/07/08 11:52:48;;;;;;;0.40;0.30;;;17.60;99.90;;;;;;5099294;28;20386;-78
2021/07/08 11:55:15;;;;;;;0.40;0.20;;;17.70;99.90;;;;;;5111434;28;20430;-80
2021/07/08 11:58:03;;;;;;;0.40;0.30;;;17.70;99.90;;;;;;5106427;28;20394;-75
2021/07/08 12:00:35;;;;;;;0.40;0.30;;;17.80;99.90;;;;;;5098507;28;20395;-75
2021/07/08 12:03:17;;;;;;;0.40;0.30;;;17.90;99.90;;;;;;5100023;28;20414;-81
2021/07/08 12:05:42;;;;;;;0.40;0.20;;;17.80;99.90;;;;;;5093513;28;20428;-75
2021/07/08 12:08:18;;;;;;;0.40;0.20;;;17.80;99.90;;;;;;5086870;28;20431;-79
2021/07/08 12:10:46;;;;;;;0.40;0.20;;;17.70;99.90;;;;;;5113800;28;20400;-78
2021/07/08 12:13:17;;;;;;;0.40;0.20;;;17.70;99.90;;;;;;5113123;28;20404;-79
2021/07/08 12:15:42;;;;;;;0.40;0.30;;;17.70;99.90;;;;;;5101125;28;20841;-78
2021/07/08 12:18:08;;;;;;;0.40;0.30;;;17.70;99.90;;;;;;5099941;28;20424;-80
2021/07/08 12:20:36;;;;;;;0.40;0.30;;;17.70;99.90;;;;;;5112769;28;20410;-80
2021/07/08 12:23:08;;;;;;;0.40;0.30;;;17.70;99.90;;;;;;5092955;28;20382;-84
2021/07/08 12:25:34;;;;;;;0.40;0.30;;;17.50;99.90;;;;;;5109056;28;20396;-82
2021/07/08 12:28:00;;;;;;;0.40;0.30;;;17.60;99.90;;;;;;5102520;28;20909;-80
2021/07/08 12:30:28;;;;;;;0.40;0.20;;;17.60;99.90;;;;;;5074581;28;20549;-79
2021/07/08 12:33:14;;;;;;;0.40;0.20;;;17.70;99.90;;;;;;5092993;28;20867;-80
2021/07/08 12:35:48;;;;;;;0.40;0.30;;;17.80;99.90;;;;;;5085545;28;20471;-80
2021/07/08 12:38:17;;;;;;;0.40;0.30;;;17.70;99.90;;;;;;5092037;28;20723;-80
2021/07/08 12:40:45;;;;;;;0.40;0.30;;;17.70;99.90;;;;;;5093070;28;20746;-80
2021/07/08 12:43:15;;;;;;;0.40;0.20;;;17.80;99.90;;;;;;5106376;28;20392;-80
2021/07/08 12:45:42;;;;;;;0.40;0.20;;;17.90;99.90;;;;;;5112098;28;20388;-80
2021/07/08 12:48:13;;;;;;;0.40;0.20;;;17.80;99.90;;;;;;5112203;28;20380;-79
2021/07/08 12:50:41;;;;;;;0.40;0.20;;;18.00;99.90;;;;;;5096155;28;20424;-78
2021/07/08 12:53:09;;;;;;;0.40;0.20;;;18.00;99.90;;;;;;5092874;28;20459;-82
2021/07/08 12:55:44;;;;;;;0.40;0.20;;;18.10;99.90;;;;;;5089537;28;20909;-81
2021/07/08 12:58:17;;;;;;;0.40;0.20;;;18.10;99.90;;;;;;5087493;28;20475;-81
2021/07/08 13:00:44;;;;;;;0.40;0.20;;;18.10;99.90;;;;;;5088092;28;20457;-81